createdAt,value
2023-06-04T00:02:20.517Z,8.00
2023-06-04T00:04:47.680Z,7.97
2023-06-04T00:07:14.814Z,7.50
2023-06-04T00:09:41.874Z,6.90
2023-06-04T00:12:09.104Z,6.07
2023-06-04T00:14:36.039Z,8.10
2023-06-04T00:17:03.163Z,8.48
2023-06-04T00:19:30.090Z,7.82
2023-06-04T00:21:57.110Z,6.60
2023-06-04T00:24:24.148Z,6.50
2023-06-04T00:26:51.059Z,7.78
2023-06-04T00:29:18.214Z,7.63
2023-06-04T00:31:45.619Z,7.15
2023-06-04T00:34:12.631Z,7.75
2023-06-04T00:36:41.658Z,6.35
2023-06-04T00:39:08.648Z,7.25
2023-06-04T00:41:35.747Z,7.18
2023-06-04T00:44:03.458Z,8.68
2023-06-04T00:46:32.369Z,8.20
2023-06-04T00:48:59.670Z,7.65
2023-06-04T00:51:27.229Z,8.20
2023-06-04T00:53:54.964Z,6.88
2023-06-04T00:56:22.092Z,8.13
2023-06-04T00:58:49.114Z,8.18
2023-06-04T01:01:33.070Z,7.53
2023-06-04T01:04:02.225Z,8.35
2023-06-04T01:06:39.174Z,7.07
2023-06-04T01:09:07.122Z,7.20
2023-06-04T01:11:36.574Z,10.00
2023-06-04T01:14:05.278Z,7.78
2023-06-04T01:16:41.964Z,7.23
2023-06-04T01:20:00.595Z,7.13
2023-06-04T01:22:37.813Z,6.43
2023-06-04T01:25:27.013Z,7.68
2023-06-04T01:27:58.193Z,6.22
2023-06-04T01:30:28.082Z,8.80
2023-06-04T01:32:56.256Z,7.80
2023-06-04T01:35:25.980Z,6.72
2023-06-04T01:37:56.279Z,7.45
2023-06-04T01:40:24.118Z,6.97
2023-06-04T01:42:51.044Z,6.22
2023-06-04T01:45:18.763Z,8.98
2023-06-04T01:47:45.754Z,6.63
2023-06-04T01:50:12.794Z,7.63
2023-06-04T01:52:41.249Z,7.32
2023-06-04T01:55:13.212Z,5.82
2023-06-04T01:57:41.712Z,6.68
2023-06-04T02:00:11.627Z,5.35
2023-06-04T02:02:44.603Z,5.70
2023-06-04T02:05:12.224Z,6.78
2023-06-04T02:07:41.490Z,4.70
2023-06-04T02:10:09.306Z,6.72
2023-06-04T02:12:39.041Z,8.20
2023-06-04T02:15:10.927Z,6.53
2023-06-04T02:17:41.360Z,5.32
2023-06-04T02:20:10.750Z,6.38
2023-06-04T02:22:38.484Z,5.85
2023-06-04T02:25:06.756Z,9.27
2023-06-04T02:27:33.847Z,7.40
2023-06-04T02:30:01.020Z,5.90
2023-06-04T02:32:29.784Z,6.97
2023-06-04T02:34:57.273Z,6.18
2023-06-04T02:37:24.267Z,6.75
2023-06-04T02:39:51.639Z,5.97
2023-06-04T02:42:18.805Z,6.35
2023-06-04T02:44:45.693Z,6.28
2023-06-04T02:47:12.629Z,6.07
2023-06-04T02:49:39.739Z,7.28
2023-06-04T02:52:08.398Z,7.78
2023-06-04T02:54:35.693Z,6.82
2023-06-04T02:57:05.269Z,7.43
2023-06-04T02:59:33.677Z,6.43
2023-06-04T03:02:00.934Z,7.88
2023-06-04T03:04:35.499Z,6.03
2023-06-04T03:07:03.592Z,6.40
2023-06-04T03:09:31.909Z,9.65
2023-06-04T03:12:02.821Z,7.35
2023-06-04T03:14:34.476Z,6.25
2023-06-04T03:17:08.600Z,7.32
2023-06-04T03:19:39.466Z,10.05
2023-06-04T03:22:07.497Z,10.25
2023-06-04T03:24:40.024Z,7.03
2023-06-04T03:27:08.987Z,8.07
2023-06-04T03:29:36.711Z,6.93
2023-06-04T03:32:05.580Z,6.95
2023-06-04T03:34:35.557Z,7.38
2023-06-04T03:37:04.002Z,6.78
2023-06-04T03:39:31.653Z,7.88
2023-06-04T03:42:00.507Z,9.10
2023-06-04T03:44:28.448Z,6.50
2023-06-04T03:46:55.540Z,6.07
2023-06-04T03:49:24.116Z,6.50
2023-06-04T03:51:51.355Z,7.07
2023-06-04T03:54:19.762Z,8.45
2023-06-04T03:56:49.310Z,7.38
2023-06-04T03:59:16.360Z,9.57
2023-06-04T04:01:44.665Z,7.20
2023-06-04T04:04:11.956Z,7.28
2023-06-04T04:06:39.458Z,6.03
2023-06-04T04:09:07.973Z,6.35
2023-06-04T04:11:36.302Z,8.20
2023-06-04T04:14:04.093Z,8.73
2023-06-04T04:16:31.209Z,6.32
2023-06-04T04:18:58.655Z,7.32
2023-06-04T04:21:26.543Z,7.53
2023-06-04T04:23:53.719Z,7.45
2023-06-04T04:26:21.084Z,8.23
2023-06-04T04:28:53.424Z,6.72
2023-06-04T04:31:23.514Z,7.75
2023-06-04T04:33:52.432Z,7.97
2023-06-04T04:36:22.905Z,7.45
2023-06-04T04:38:56.017Z,10.35
2023-06-04T04:41:29.188Z,10.38
2023-06-04T04:44:05.100Z,7.45
2023-06-04T04:46:32.592Z,9.88
2023-06-04T04:48:59.582Z,10.82
2023-06-04T04:51:26.584Z,7.78
2023-06-04T04:53:55.866Z,6.80
2023-06-04T04:56:24.609Z,9.68
2023-06-04T04:58:52.892Z,8.65
2023-06-04T05:01:21.103Z,9.88
2023-06-04T05:03:50.278Z,7.00
2023-06-04T05:06:18.045Z,7.63
2023-06-04T05:08:45.686Z,7.55
2023-06-04T05:11:14.628Z,7.57
2023-06-04T05:13:45.744Z,8.90
2023-06-04T05:16:14.425Z,7.80
2023-06-04T05:18:45.747Z,8.95
2023-06-04T05:21:17.600Z,13.77
2023-06-04T05:23:53.965Z,11.13
2023-06-04T05:26:26.636Z,11.40
2023-06-04T05:28:58.143Z,38.28
2023-06-04T05:31:30.745Z,9.95
2023-06-04T05:34:02.493Z,13.13
2023-06-04T05:36:32.159Z,10.50
2023-06-04T05:39:03.212Z,9.85
2023-06-04T05:41:44.830Z,10.18
2023-06-04T05:44:12.036Z,11.05
2023-06-04T05:46:39.517Z,10.88
2023-06-04T05:49:06.611Z,10.88
2023-06-04T05:51:33.773Z,9.50
2023-06-04T05:54:01.197Z,10.15
2023-06-04T05:56:28.391Z,8.50
2023-06-04T05:58:57.195Z,8.15
2023-06-04T06:01:26.078Z,13.15
2023-06-04T06:03:53.896Z,13.80
2023-06-04T06:06:22.860Z,10.68
2023-06-04T06:08:50.786Z,9.48
2023-06-04T06:11:18.987Z,9.68
2023-06-04T06:13:46.506Z,10.70
2023-06-04T06:16:14.497Z,11.25
2023-06-04T06:18:41.718Z,10.70
2023-06-04T06:21:08.983Z,10.80
2023-06-04T06:23:36.808Z,10.82
2023-06-04T06:26:09.165Z,9.98
2023-06-04T06:28:41.827Z,9.48
2023-06-04T06:31:10.127Z,12.23
2023-06-04T06:33:42.697Z,10.02
2023-06-04T06:36:13.210Z,9.57
2023-06-04T06:38:41.286Z,8.50
2023-06-04T06:41:09.528Z,13.45
2023-06-04T06:43:36.865Z,10.43
2023-06-04T06:46:03.999Z,11.55
2023-06-04T06:48:31.022Z,10.85
2023-06-04T06:50:58.127Z,11.45
2023-06-04T06:53:25.159Z,13.13
2023-06-04T06:55:52.225Z,9.18
2023-06-04T06:58:19.204Z,8.20
2023-06-04T07:00:46.363Z,9.48
2023-06-04T07:03:13.723Z,9.38
2023-06-04T07:05:40.887Z,9.65
2023-06-04T07:08:07.978Z,10.93
2023-06-04T07:10:35.061Z,8.48
2023-06-04T07:13:02.234Z,11.90
2023-06-04T07:15:29.277Z,9.75
2023-06-04T07:17:56.337Z,9.88
2023-06-04T07:20:23.432Z,11.13
2023-06-04T07:22:50.659Z,8.95
2023-06-04T07:25:17.864Z,11.05
2023-06-04T07:27:44.888Z,8.60
2023-06-04T07:30:12.145Z,10.57
2023-06-04T07:32:39.169Z,10.73
2023-06-04T07:35:06.569Z,9.05
2023-06-04T07:37:33.685Z,9.63
2023-06-04T07:40:00.880Z,12.38
2023-06-04T07:42:28.028Z,9.77
2023-06-04T07:44:55.044Z,11.40
2023-06-04T07:47:22.902Z,13.27
2023-06-04T07:50:01.814Z,9.43
2023-06-04T07:52:32.556Z,12.43
2023-06-04T07:55:00.719Z,10.32
2023-06-04T07:57:28.441Z,13.73
2023-06-04T07:59:55.402Z,10.30
2023-06-04T08:02:22.686Z,10.10
2023-06-04T08:04:50.237Z,9.93
2023-06-04T08:07:17.297Z,11.63
2023-06-04T08:09:46.223Z,10.35
2023-06-04T08:12:13.360Z,12.43
2023-06-04T08:14:40.267Z,16.58
2023-06-04T08:17:07.344Z,12.65
2023-06-04T08:19:42.135Z,15.27
2023-06-04T08:22:13.501Z,11.65
2023-06-04T08:24:50.452Z,12.82
2023-06-04T08:27:38.600Z,11.07
2023-06-04T08:30:17.320Z,12.63
2023-06-04T08:33:04.374Z,15.05
2023-06-04T08:35:41.912Z,13.80
2023-06-04T08:38:09.093Z,15.27
2023-06-04T08:40:36.304Z,14.63
2023-06-04T08:43:05.466Z,15.32
2023-06-04T08:45:34.626Z,15.48
2023-06-04T08:50:29.481Z,13.30
2023-06-04T08:52:57.434Z,13.15
2023-06-04T08:55:24.911Z,12.82
2023-06-04T08:57:52.808Z,19.13
2023-06-04T09:00:21.002Z,13.77
2023-06-04T09:02:49.043Z,14.68
2023-06-04T09:05:21.980Z,14.30
2023-06-04T09:07:53.237Z,10.63
2023-06-04T09:10:23.852Z,11.18
2023-06-04T09:12:53.240Z,12.85
2023-06-04T09:15:20.611Z,13.63
2023-06-04T09:17:47.740Z,12.00
2023-06-04T09:20:22.474Z,16.98
2023-06-04T09:22:50.205Z,15.45
2023-06-04T09:25:21.351Z,13.45
2023-06-04T09:27:48.994Z,13.90
2023-06-04T09:30:16.032Z,15.00
2023-06-04T09:32:43.657Z,14.65
2023-06-04T09:35:13.870Z,13.10
2023-06-04T09:37:53.389Z,14.88
2023-06-04T09:40:20.908Z,17.40
2023-06-04T09:42:56.060Z,15.73
2023-06-04T09:45:30.425Z,14.73
2023-06-04T09:47:57.760Z,12.52
2023-06-04T09:50:28.966Z,17.00
2023-06-04T09:52:56.247Z,19.75
2023-06-04T09:55:23.811Z,14.88
2023-06-04T09:57:52.662Z,13.73
2023-06-04T10:00:25.089Z,17.10
2023-06-04T10:03:04.424Z,14.18
2023-06-04T10:05:35.248Z,13.50
2023-06-04T10:08:08.723Z,12.57
2023-06-04T10:10:38.627Z,13.15
2023-06-04T10:13:16.491Z,14.15
2023-06-04T10:15:44.257Z,12.85
2023-06-04T10:18:12.293Z,12.07
2023-06-04T10:20:41.052Z,11.50
2023-06-04T10:23:09.641Z,11.40
2023-06-04T10:25:36.799Z,12.05
2023-06-04T10:28:05.146Z,12.93
2023-06-04T10:30:32.493Z,12.30
2023-06-04T10:33:00.586Z,12.93
2023-06-04T10:35:37.521Z,12.43
2023-06-04T10:38:13.060Z,11.80
2023-06-04T10:40:40.645Z,10.77
2023-06-04T10:43:09.628Z,13.77
2023-06-04T10:45:37.296Z,10.75
2023-06-04T10:48:09.647Z,12.93
2023-06-04T10:50:49.801Z,12.90
2023-06-04T10:53:19.325Z,14.65
2023-06-04T10:55:48.365Z,13.68
2023-06-04T10:58:16.615Z,12.88
2023-06-04T11:00:50.490Z,13.57
2023-06-04T11:03:18.078Z,11.15
2023-06-04T11:05:47.620Z,11.30
2023-06-04T11:08:16.172Z,13.00
2023-06-04T11:10:46.172Z,11.27
2023-06-04T11:13:14.087Z,11.80
2023-06-04T11:15:45.208Z,12.95
2023-06-04T11:18:20.822Z,10.43
2023-06-04T11:20:49.911Z,16.70
2023-06-04T11:23:17.810Z,13.98
2023-06-04T11:25:45.267Z,15.38
2023-06-04T11:28:19.527Z,10.93
2023-06-04T11:31:07.421Z,11.73
2023-06-04T11:33:45.011Z,13.57
2023-06-04T11:36:23.121Z,10.10
2023-06-04T11:39:04.964Z,11.65
2023-06-04T11:41:33.218Z,10.50
2023-06-04T11:44:04.836Z,11.50
2023-06-04T11:46:33.874Z,12.00
2023-06-04T11:49:02.979Z,12.85
2023-06-04T11:51:30.686Z,10.68
2023-06-04T11:53:58.873Z,11.68
2023-06-04T11:56:29.417Z,12.98
2023-06-04T11:58:56.859Z,12.50
2023-06-04T12:01:24.362Z,11.70
2023-06-04T12:03:51.492Z,11.82
2023-06-04T12:06:21.712Z,12.63
2023-06-04T12:08:54.200Z,11.70
2023-06-04T12:11:32.668Z,12.25
2023-06-04T12:14:08.079Z,10.68
2023-06-04T12:16:35.709Z,12.18
2023-06-04T12:19:10.972Z,12.38
2023-06-04T12:21:39.732Z,13.20
2023-06-04T12:24:11.535Z,14.37
2023-06-04T12:26:41.753Z,12.98
2023-06-04T12:29:11.530Z,16.02
2023-06-04T12:31:43.953Z,13.93
2023-06-04T12:34:12.730Z,13.05
2023-06-04T12:36:39.986Z,11.95
2023-06-04T12:39:08.498Z,15.98
2023-06-04T12:41:35.693Z,13.63
2023-06-04T12:44:03.298Z,12.27
2023-06-04T12:46:30.902Z,11.55
2023-06-04T12:48:58.151Z,13.13
2023-06-04T12:51:25.217Z,13.00
2023-06-04T12:53:52.423Z,15.82
2023-06-04T12:56:19.722Z,12.18
2023-06-04T12:58:46.696Z,13.55
2023-06-04T13:01:14.127Z,12.00
2023-06-04T13:03:42.016Z,11.35
2023-06-04T13:06:09.366Z,10.40
2023-06-04T13:08:37.595Z,12.52
2023-06-04T13:11:05.666Z,11.60
2023-06-04T13:13:33.094Z,13.77
2023-06-04T13:16:00.336Z,11.25
2023-06-04T13:18:27.413Z,12.13
2023-06-04T13:20:54.654Z,13.10
2023-06-04T13:23:27.133Z,10.27
2023-06-04T13:25:58.828Z,11.27
2023-06-04T13:28:25.847Z,11.13
2023-06-04T13:30:52.858Z,10.63
2023-06-04T13:33:21.324Z,10.02
2023-06-04T13:35:48.632Z,12.75
2023-06-04T13:38:15.637Z,11.05
2023-06-04T13:40:44.196Z,9.85
2023-06-04T13:43:11.190Z,10.82
2023-06-04T13:45:38.371Z,11.05
2023-06-04T13:48:08.292Z,9.02
2023-06-04T13:50:36.377Z,11.23
2023-06-04T13:53:03.398Z,11.57
2023-06-04T13:55:31.020Z,10.18
2023-06-04T13:57:58.007Z,11.15
2023-06-04T14:00:25.111Z,9.57
2023-06-04T14:02:53.722Z,11.70
2023-06-04T14:05:21.038Z,12.23
2023-06-04T14:07:48.006Z,11.23
2023-06-04T14:10:15.221Z,9.63
2023-06-04T14:12:42.273Z,10.82
2023-06-04T14:15:09.717Z,9.02
2023-06-04T14:17:36.830Z,12.88
2023-06-04T14:20:08.520Z,10.50
2023-06-04T14:22:37.186Z,10.48
2023-06-04T14:25:08.441Z,11.85
2023-06-04T14:27:36.689Z,11.02
2023-06-04T14:30:04.975Z,11.35
2023-06-04T14:32:37.594Z,10.75
2023-06-04T14:35:05.238Z,12.02
2023-06-04T14:37:33.096Z,14.70
2023-06-04T14:40:00.160Z,13.10
2023-06-04T14:42:27.232Z,13.75
2023-06-04T14:44:54.239Z,14.90
2023-06-04T14:47:21.395Z,11.40
2023-06-04T14:49:48.421Z,9.00
2023-06-04T14:52:15.440Z,12.60
2023-06-04T14:54:42.510Z,13.00
2023-06-04T14:57:09.542Z,11.52
2023-06-04T14:59:37.284Z,12.82
2023-06-04T15:02:04.468Z,19.58
2023-06-04T15:04:31.497Z,14.65
2023-06-04T15:06:58.514Z,20.45
2023-06-04T15:09:25.682Z,17.77
2023-06-04T15:11:52.734Z,12.55
2023-06-04T15:14:19.696Z,14.80
2023-06-04T15:16:46.871Z,12.60
2023-06-04T15:19:13.871Z,15.18
2023-06-04T15:21:40.910Z,11.52
2023-06-04T15:24:10.136Z,13.80
2023-06-04T15:29:04.000Z,11.75
2023-06-04T15:31:31.125Z,12.38
2023-06-04T15:33:58.114Z,12.10
2023-06-04T15:36:25.179Z,11.38
2023-06-04T15:38:52.106Z,14.30
2023-06-04T15:41:19.213Z,10.57
2023-06-04T15:43:46.181Z,12.18
2023-06-04T15:46:13.166Z,12.15
2023-06-04T15:48:40.214Z,14.32
2023-06-04T15:51:07.453Z,14.93
2023-06-04T15:53:34.509Z,12.38
2023-06-04T15:56:02.412Z,11.93
2023-06-04T15:58:29.280Z,17.50
2023-06-04T16:00:56.325Z,11.73
2023-06-04T16:03:23.589Z,15.13
2023-06-04T16:05:50.822Z,11.35
2023-06-04T16:08:17.833Z,13.55
2023-06-04T16:10:46.611Z,13.10
2023-06-04T16:13:13.896Z,15.18
2023-06-04T16:15:40.875Z,17.92
2023-06-04T16:18:07.983Z,17.65
2023-06-04T16:20:35.485Z,19.17
2023-06-04T16:23:02.690Z,17.80
2023-06-04T16:25:30.662Z,19.00
2023-06-04T16:27:58.025Z,19.23
2023-06-04T16:30:25.154Z,16.50
2023-06-04T16:32:52.273Z,17.02
2023-06-04T16:35:19.361Z,20.55
2023-06-04T16:37:46.480Z,19.23
2023-06-04T16:40:13.493Z,19.15
2023-06-04T16:42:40.557Z,19.10
2023-06-04T16:45:08.250Z,18.10
2023-06-04T16:47:36.048Z,21.73
2023-06-04T16:50:03.349Z,17.75
2023-06-04T16:52:31.921Z,19.85
2023-06-04T16:55:00.297Z,21.67
2023-06-04T16:57:30.914Z,16.75
2023-06-04T16:59:57.950Z,23.00
2023-06-04T17:02:26.038Z,20.65
2023-06-04T17:04:53.384Z,22.20
2023-06-04T17:07:20.869Z,18.15
2023-06-04T17:09:48.904Z,19.45
2023-06-04T17:12:16.646Z,22.40
2023-06-04T17:14:43.769Z,19.50
2023-06-04T17:17:13.863Z,21.35
2023-06-04T17:19:45.373Z,21.42
2023-06-04T17:22:12.752Z,18.88
2023-06-04T17:24:40.135Z,21.17
2023-06-04T17:27:09.308Z,19.13
2023-06-04T17:29:37.413Z,23.38
2023-06-04T17:32:05.091Z,20.98
2023-06-04T17:34:32.461Z,18.17
2023-06-04T17:37:01.213Z,21.92
2023-06-04T17:39:28.583Z,17.15
2023-06-04T17:41:55.620Z,18.90
2023-06-04T17:44:23.217Z,16.55
2023-06-04T17:46:50.384Z,18.23
2023-06-04T17:49:17.611Z,17.52
2023-06-04T17:51:44.697Z,18.30
2023-06-04T17:54:13.039Z,18.70
2023-06-04T17:56:40.054Z,25.05
2023-06-04T17:59:07.657Z,25.10
2023-06-04T18:01:34.865Z,25.27
2023-06-04T18:04:05.601Z,21.83
2023-06-04T18:06:32.832Z,21.20
2023-06-04T18:08:59.804Z,25.08
2023-06-04T18:11:27.875Z,24.52
2023-06-04T18:13:54.909Z,21.65
2023-06-04T18:16:22.742Z,20.25
2023-06-04T18:18:50.107Z,21.70
2023-06-04T18:21:17.168Z,22.25
2023-06-04T18:23:50.753Z,21.13
2023-06-04T18:26:18.509Z,16.42
2023-06-04T18:28:46.023Z,14.07
2023-06-04T18:31:13.122Z,12.32
2023-06-04T18:33:50.841Z,11.82
2023-06-04T18:36:23.620Z,12.32
2023-06-04T18:38:50.850Z,11.00
2023-06-04T18:41:17.938Z,11.75
2023-06-04T18:43:45.084Z,53.03
2023-06-04T18:46:12.740Z,8.98
2023-06-04T18:48:39.651Z,11.20
2023-06-04T18:51:06.681Z,10.80
2023-06-04T18:56:18.527Z,11.10
2023-06-04T18:58:50.441Z,10.13
2023-06-04T19:01:18.248Z,8.85
2023-06-04T19:03:45.567Z,8.55
2023-06-04T19:06:12.773Z,10.65
2023-06-04T19:08:39.868Z,8.88
2023-06-04T19:11:08.293Z,8.50
2023-06-04T19:13:35.489Z,10.55
2023-06-04T19:16:02.874Z,10.65
2023-06-04T19:18:31.297Z,11.48
2023-06-04T19:20:58.697Z,10.00
2023-06-04T19:23:26.216Z,12.48
2023-06-04T19:25:53.380Z,8.73
2023-06-04T19:28:20.416Z,9.48
2023-06-04T19:30:48.459Z,9.82
2023-06-04T19:33:15.612Z,9.18
2023-06-04T19:35:42.810Z,9.88
2023-06-04T19:38:09.996Z,12.20
2023-06-04T19:40:37.140Z,13.50
2023-06-04T19:43:04.086Z,13.73
2023-06-04T19:45:31.114Z,13.05
2023-06-04T19:47:59.199Z,13.07
2023-06-04T19:50:26.274Z,10.40
2023-06-04T19:52:53.833Z,11.13
2023-06-04T19:55:20.816Z,15.15
2023-06-04T19:57:49.033Z,11.93
2023-06-04T20:00:16.957Z,12.32
2023-06-04T20:02:44.010Z,11.10
2023-06-04T20:05:11.322Z,11.15
2023-06-04T20:07:38.383Z,12.32
2023-06-04T20:10:06.437Z,11.15
2023-06-04T20:12:34.013Z,11.23
2023-06-04T20:15:01.020Z,12.57
2023-06-04T20:17:32.601Z,11.15
2023-06-04T20:19:59.695Z,12.38
2023-06-04T20:22:26.846Z,13.40
2023-06-04T20:24:53.786Z,13.77
2023-06-04T20:27:20.789Z,11.73
2023-06-04T20:29:47.803Z,11.55
2023-06-04T20:32:14.812Z,15.43
2023-06-04T20:34:41.815Z,15.68
2023-06-04T20:37:09.332Z,13.60
2023-06-04T20:39:40.366Z,12.50
2023-06-04T20:42:07.704Z,14.80
2023-06-04T20:44:34.822Z,13.68
2023-06-04T20:47:02.068Z,13.77
2023-06-04T20:49:29.018Z,13.48
2023-06-04T20:51:56.117Z,12.35
2023-06-04T20:54:23.330Z,16.88
2023-06-04T20:56:50.483Z,13.77
2023-06-04T20:59:17.566Z,12.60
2023-06-04T21:01:44.522Z,12.60
2023-06-04T21:04:11.980Z,13.80
2023-06-04T21:06:40.316Z,16.77
2023-06-04T21:09:07.936Z,19.95
2023-06-04T21:11:34.977Z,17.33
2023-06-04T21:14:02.233Z,26.55
2023-06-04T21:16:29.316Z,15.45
2023-06-04T21:18:56.351Z,17.20
2023-06-04T21:21:23.345Z,19.13
2023-06-04T21:23:50.547Z,16.30
2023-06-04T21:26:18.337Z,15.52
2023-06-04T21:28:45.363Z,17.00
2023-06-04T21:31:12.350Z,16.13
2023-06-04T21:33:39.625Z,15.15
2023-06-04T21:36:06.695Z,15.23
2023-06-04T21:38:33.750Z,16.60
2023-06-04T21:41:00.819Z,18.65
2023-06-04T21:43:27.802Z,19.63
2023-06-04T21:45:55.529Z,17.13
2023-06-04T21:48:22.667Z,16.33
2023-06-04T21:50:49.598Z,16.65
2023-06-04T21:53:16.928Z,20.90
2023-06-04T21:55:43.920Z,19.10
2023-06-04T21:58:10.960Z,16.42
2023-06-04T22:00:37.985Z,19.55
2023-06-04T22:03:05.184Z,17.92
2023-06-04T22:05:32.248Z,19.77
2023-06-04T22:08:01.930Z,17.80
2023-06-04T22:10:30.060Z,24.88
2023-06-04T22:12:57.125Z,26.50
2023-06-04T22:15:24.155Z,20.98
2023-06-04T22:17:51.186Z,17.65
2023-06-04T22:20:18.473Z,19.33
2023-06-04T22:22:45.578Z,17.52
2023-06-04T22:25:12.528Z,17.05
2023-06-04T22:27:39.550Z,21.50
2023-06-04T22:30:07.132Z,17.98
2023-06-04T22:32:35.827Z,18.38
2023-06-04T22:35:02.905Z,18.95
2023-06-04T22:37:31.815Z,16.92
2023-06-04T22:40:01.783Z,19.70
2023-06-04T22:42:31.458Z,19.88
2023-06-04T22:44:58.686Z,18.45
2023-06-04T22:47:26.028Z,16.33
2023-06-04T22:49:53.129Z,17.90
2023-06-04T22:52:21.032Z,17.45
2023-06-04T22:54:48.184Z,18.05
2023-06-04T22:57:15.584Z,19.55
2023-06-04T22:59:42.639Z,23.27
2023-06-04T23:02:09.738Z,20.27
2023-06-04T23:04:37.813Z,20.38
2023-06-04T23:07:06.657Z,24.02
2023-06-04T23:09:33.873Z,23.17
2023-06-04T23:12:00.866Z,21.17
2023-06-04T23:14:27.913Z,26.40
2023-06-04T23:16:55.029Z,20.55
2023-06-04T23:19:22.106Z,22.77
2023-06-04T23:21:49.181Z,22.33
2023-06-04T23:24:16.132Z,24.75
2023-06-04T23:26:43.147Z,24.65
2023-06-04T23:29:10.392Z,23.13
2023-06-04T23:31:37.445Z,22.92
2023-06-04T23:34:04.412Z,24.58
2023-06-04T23:36:31.431Z,24.20
2023-06-04T23:38:58.761Z,24.70
2023-06-04T23:41:25.844Z,27.98
2023-06-04T23:43:52.941Z,26.70
2023-06-04T23:46:19.973Z,26.05
2023-06-04T23:48:47.024Z,24.40
2023-06-04T23:51:14.107Z,25.50
2023-06-04T23:53:41.420Z,24.23
2023-06-04T23:56:08.394Z,25.50
2023-06-04T23:58:35.541Z,25.77
